Time;durP1;ratioP1;P1;durP2;ratioP2;P2;SDS_P1;SDS_P2;PMS_P1;PMS_P2;Temp;Humidity;BMP_temperature;BMP_pressure;BME280_temperature;BME280_humidity;BME280_pressure;Samples;Min_cycle;Max_cycle;Signal;HPM_P1;HPM_P2
2021/05/18 00:02:05;;;;;;;9.73;8.73;;;10.20;93.40;;;;;;5050860;28;20059;-67
2021/05/18 00:04:31;;;;;;;11.65;8.60;;;10.20;93.80;;;;;;5048902;28;20406;-67
2021/05/18 00:06:56;;;;;;;10.25;9.05;;;10.20;93.90;;;;;;5049217;28;20113;-67
2021/05/18 00:12:07;;;;;;;10.95;9.55;;;10.20;94.20;;;;;;5050062;28;20036;-67
2021/05/18 00:14:35;;;;;;;12.00;9.65;;;10.10;93.90;;;;;;5050162;28;20119;-66
2021/05/18 00:17:02;;;;;;;11.93;9.57;;;10.10;94.50;;;;;;5051410;28;20074;-67
2021/05/18 00:19:31;;;;;;;10.48;9.35;;;10.10;93.90;;;;;;5049708;28;20398;-67
2021/05/18 00:21:57;;;;;;;13.65;10.38;;;10.20;93.90;;;;;;5049782;28;20045;-67
2021/05/18 00:24:23;;;;;;;11.50;9.15;;;10.20;94.20;;;;;;5049299;28;20040;-67
2021/05/18 00:26:49;;;;;;;14.32;10.25;;;10.20;93.70;;;;;;5051233;28;20136;-67
2021/05/18 00:29:15;;;;;;;10.65;9.45;;;10.20;93.90;;;;;;5050361;28;20394;-67
2021/05/18 00:31:40;;;;;;;10.93;9.32;;;10.20;94.00;;;;;;5049942;28;20043;-67
2021/05/18 00:34:06;;;;;;;10.35;8.68;;;10.20;94.40;;;;;;5050882;28;20120;-67
2021/05/18 00:36:32;;;;;;;9.88;8.88;;;10.20;93.00;;;;;;5050444;28;20041;-67
2021/05/18 00:38:58;;;;;;;10.25;9.15;;;10.20;92.90;;;;;;5050230;28;20118;-67
2021/05/18 00:41:24;;;;;;;11.63;9.73;;;10.30;92.60;;;;;;5049100;28;20068;-67
2021/05/18 00:43:50;;;;;;;11.38;9.57;;;10.30;91.30;;;;;;5049692;28;20121;-67
2021/05/18 00:46:15;;;;;;;10.43;9.32;;;10.30;91.60;;;;;;5050467;28;20036;-67
2021/05/18 00:48:56;;;;;;;11.43;9.25;;;10.30;91.70;;;;;;5049861;28;20057;-67
2021/05/18 00:51:22;;;;;;;13.73;10.35;;;10.30;92.30;;;;;;5041386;28;20235;-67
2021/05/18 00:53:48;;;;;;;11.35;10.15;;;10.30;92.00;;;;;;5049193;28;20067;-67
2021/05/18 00:59:03;;;;;;;14.70;9.63;;;10.30;91.90;;;;;;5050582;28;20032;-67
2021/05/18 01:01:32;;;;;;;10.38;8.77;;;10.30;92.20;;;;;;5050190;28;20490;-67
2021/05/18 01:03:59;;;;;;;11.85;10.15;;;10.30;91.70;;;;;;5049553;28;20037;-67
2021/05/18 01:06:28;;;;;;;13.27;10.60;;;10.20;91.80;;;;;;5049798;28;20478;-67
2021/05/18 01:08:57;;;;;;;12.35;9.65;;;10.20;92.10;;;;;;5050039;28;20079;-67
2021/05/18 01:11:26;;;;;;;12.40;9.65;;;10.10;91.90;;;;;;5046587;28;20095;-67
2021/05/18 01:13:59;;;;;;;11.85;9.77;;;10.00;91.90;;;;;;5050046;28;20036;-67
2021/05/18 01:16:27;;;;;;;10.05;9.00;;;10.00;91.80;;;;;;5049663;28;20032;-67
2021/05/18 01:18:54;;;;;;;12.10;9.57;;;9.90;92.00;;;;;;5046255;28;20083;-67
2021/05/18 01:21:20;;;;;;;11.43;9.60;;;9.80;92.00;;;;;;5050403;28;20051;-67
2021/05/18 01:23:46;;;;;;;11.57;10.00;;;9.70;92.40;;;;;;5050047;28;20128;-67
2021/05/18 01:26:14;;;;;;;12.10;9.77;;;9.60;93.00;;;;;;5050557;28;20128;-67
2021/05/18 01:28:41;;;;;;;10.70;9.60;;;9.60;93.10;;;;;;5044210;28;20033;-67
2021/05/18 01:31:09;;;;;;;13.27;9.80;;;9.50;92.30;;;;;;5049460;28;20054;-67
2021/05/18 01:33:35;;;;;;;10.73;9.45;;;9.50;92.20;;;;;;5031336;28;20052;-69
2021/05/18 01:36:04;;;;;;;13.65;10.27;;;9.40;92.40;;;;;;5048131;28;20037;-69
2021/05/18 01:38:37;;;;;;;11.98;9.73;;;9.30;92.90;;;;;;5049779;28;20124;-69
2021/05/18 01:43:52;;;;;;;13.32;10.70;;;9.10;93.90;;;;;;5049070;28;20041;-69
2021/05/18 01:46:20;;;;;;;12.23;10.43;;;9.00;93.90;;;;;;5046967;28;20037;-69
2021/05/18 01:48:58;;;;;;;13.93;10.95;;;8.90;93.80;;;;;;5048570;28;20528;-69
2021/05/18 01:51:29;;;;;;;15.05;10.98;;;8.90;94.30;;;;;;5048563;28;20159;-69
2021/05/18 01:53:57;;;;;;;14.95;10.73;;;8.80;94.40;;;;;;5044368;28;20099;-69
2021/05/18 01:56:44;;;;;;;11.88;10.43;;;8.80;93.90;;;;;;5046490;28;20051;-69
2021/05/18 01:59:13;;;;;;;13.80;10.73;;;8.70;94.90;;;;;;5045992;28;20121;-69
2021/05/18 02:01:42;;;;;;;12.88;11.20;;;8.70;95.00;;;;;;5047359;28;20064;-70
2021/05/18 02:04:18;;;;;;;13.65;10.48;;;8.60;94.50;;;;;;5047421;28;20516;-69
2021/05/18 02:06:44;;;;;;;13.00;11.63;;;8.50;94.10;;;;;;5047984;28;21533;-69
2021/05/18 02:09:11;;;;;;;13.57;10.52;;;8.50;94.30;;;;;;5049082;28;20045;-69
2021/05/18 02:11:37;;;;;;;14.02;10.85;;;8.40;94.80;;;;;;5049663;28;20047;-69
2021/05/18 02:14:06;;;;;;;14.68;11.38;;;8.40;95.00;;;;;;5047561;28;20405;-69
2021/05/18 02:16:35;;;;;;;15.60;11.65;;;8.30;94.90;;;;;;5047035;28;20316;-69
2021/05/18 02:19:15;;;;;;;15.25;11.45;;;8.30;95.40;;;;;;5049247;28;20111;-69
2021/05/18 02:21:52;;;;;;;12.90;11.38;;;8.20;95.50;;;;;;5045227;28;20056;-69
2021/05/18 02:27:03;;;;;;;14.00;11.45;;;8.10;95.30;;;;;;5048965;28;20266;-70
2021/05/18 02:29:28;;;;;;;14.45;11.20;;;8.00;95.80;;;;;;5049139;28;20111;-70
2021/05/18 02:31:56;;;;;;;13.63;10.70;;;8.00;95.80;;;;;;5048634;28;20040;-70
2021/05/18 02:34:22;;;;;;;16.08;11.80;;;8.00;95.70;;;;;;5049324;28;20037;-69
2021/05/18 02:36:47;;;;;;;14.38;11.20;;;7.90;95.90;;;;;;5046979;28;20398;-70
2021/05/18 02:39:13;;;;;;;13.85;11.10;;;7.90;96.00;;;;;;5048763;28;20398;-69
2021/05/18 02:41:39;;;;;;;14.18;11.60;;;7.80;96.10;;;;;;5047090;28;20033;-69
2021/05/18 02:44:11;;;;;;;15.07;11.00;;;7.70;96.10;;;;;;5047552;28;20653;-69
2021/05/18 02:49:22;;;;;;;13.77;10.82;;;7.60;95.70;;;;;;5052004;28;20037;-69
2021/05/18 02:51:48;;;;;;;11.48;10.25;;;7.60;96.00;;;;;;5052243;28;20041;-69
2021/05/18 02:54:17;;;;;;;11.85;10.20;;;7.60;96.10;;;;;;5048132;28;20033;-69
2021/05/18 02:59:16;;;;;;;15.07;10.90;;;7.40;96.10;;;;;;5052667;28;20553;-69
2021/05/18 03:01:44;;;;;;;11.48;10.27;;;7.40;96.20;;;;;;5052733;28;20043;-69
2021/05/18 03:04:09;;;;;;;13.98;10.88;;;7.30;96.20;;;;;;5048009;28;20056;-69
2021/05/18 03:06:37;;;;;;;12.60;10.32;;;7.30;96.30;;;;;;5052872;28;20048;-69
2021/05/18 03:09:12;;;;;;;13.30;10.05;;;7.30;96.30;;;;;;5051719;28;20790;-69
2021/05/18 03:11:41;;;;;;;13.73;10.23;;;7.20;96.10;;;;;;5053296;28;20053;-69
2021/05/18 03:14:08;;;;;;;13.25;10.80;;;7.20;96.20;;;;;;5052629;28;20068;-70
2021/05/18 03:16:38;;;;;;;13.93;9.95;;;7.10;96.20;;;;;;5050346;28;20033;-70
2021/05/18 03:19:06;;;;;;;12.20;10.60;;;7.10;96.20;;;;;;5050095;28;20658;-69
2021/05/18 03:21:32;;;;;;;11.35;10.13;;;7.10;96.40;;;;;;5049412;28;20090;-69
2021/05/18 03:23:59;;;;;;;12.00;9.90;;;7.10;96.50;;;;;;5060432;22;20049;-65
2021/05/18 03:26:32;;;;;;;12.82;10.85;;;7.10;96.50;;;;;;5018013;28;20052;-65
2021/05/18 03:29:42;;;;;;;12.77;9.48;;;7.00;96.50;;;;;;5012523;28;20081;-66
2021/05/18 03:37:14;;;;;;;12.40;10.68;;;7.00;96.70;;;;;;5016169;28;20046;-67
2021/05/18 03:39:41;;;;;;;12.95;9.55;;;7.00;96.70;;;;;;5017154;28;20048;-67
2021/05/18 03:42:30;;;;;;;13.02;10.75;;;6.90;96.60;;;;;;5025050;28;20053;-66
2021/05/18 03:53:02;;;;;;;11.85;10.65;;;6.90;96.70;;;;;;5015525;28;20459;-66
2021/05/18 03:58:38;;;;;;;12.68;10.98;;;6.90;96.90;;;;;;5017911;28;20035;-66
2021/05/18 04:04:10;;;;;;;10.52;9.27;;;6.90;96.70;;;;;;5000893;28;20038;-66
2021/05/18 04:17:21;;;;;;;10.60;8.30;;;7.00;97.00;;;;;;5012621;28;20042;-66
2021/05/18 04:39:26;;;;;;;12.20;10.27;;;7.30;97.10;;;;;;5009627;28;20390;-66
2021/05/18 04:50:23;;;;;;;14.68;11.50;;;7.70;97.30;;;;;;5017543;28;20546;-67
2021/05/18 05:01:02;;;;;;;16.77;13.00;;;8.50;96.90;;;;;;5011572;28;20530;-66
2021/05/18 05:09:27;;;;;;;14.57;10.95;;;9.30;95.10;;;;;;5011534;28;20042;-67
2021/05/18 05:14:20;;;;;;;14.93;12.18;;;9.80;94.90;;;;;;5022723;28;20050;-66
2021/05/18 05:16:46;;;;;;;13.97;10.63;;;10.00;94.60;;;;;;5012851;28;20038;-67
2021/05/18 05:19:12;;;;;;;12.70;11.27;;;10.10;94.30;;;;;;5027463;28;20565;-66
2021/05/18 05:21:39;;;;;;;13.13;11.25;;;10.30;93.40;;;;;;5017351;28;20121;-67
2021/05/18 05:24:05;;;;;;;18.17;11.93;;;10.30;93.50;;;;;;5022659;28;20084;-67
2021/05/18 05:26:31;;;;;;;13.02;11.23;;;10.40;93.30;;;;;;5020172;28;20390;-67
2021/05/18 05:28:57;;;;;;;13.90;11.45;;;10.40;93.10;;;;;;5027723;28;20052;-66
2021/05/18 05:31:23;;;;;;;13.30;11.73;;;10.50;93.00;;;;;;5029709;28;20077;-67
2021/05/18 05:33:49;;;;;;;14.00;11.48;;;10.60;93.20;;;;;;5017098;28;20065;-67
2021/05/18 05:36:15;;;;;;;11.40;10.07;;;10.60;93.10;;;;;;5012577;28;20091;-67
2021/05/18 05:38:41;;;;;;;12.23;11.02;;;10.70;93.10;;;;;;5018971;28;20451;-67
2021/05/18 05:41:06;;;;;;;12.70;10.55;;;10.70;92.70;;;;;;5011197;28;20030;-67
2021/05/18 05:43:32;;;;;;;14.32;10.65;;;10.80;92.70;;;;;;5009679;28;20076;-67
2021/05/18 05:45:58;;;;;;;10.40;9.18;;;10.90;92.70;;;;;;5011217;28;20486;-67
2021/05/18 05:48:24;;;;;;;10.35;9.25;;;11.00;92.20;;;;;;5010964;28;20041;-66
2021/05/18 05:50:49;;;;;;;11.63;10.40;;;11.20;91.50;;;;;;5010356;28;20524;-67
2021/05/18 05:53:15;;;;;;;11.00;9.82;;;11.30;91.70;;;;;;5010658;28;20045;-67
2021/05/18 05:55:42;;;;;;;10.65;9.55;;;11.40;90.90;;;;;;5010310;28;21634;-67
2021/05/18 05:58:08;;;;;;;11.45;10.15;;;11.50;91.10;;;;;;5009366;28;20045;-67
2021/05/18 06:00:33;;;;;;;12.25;9.57;;;11.50;91.20;;;;;;5010667;28;20034;-66
2021/05/18 06:02:59;;;;;;;11.45;10.25;;;11.50;90.80;;;;;;5009337;28;20104;-67
2021/05/18 06:05:25;;;;;;;11.13;10.02;;;11.60;90.30;;;;;;4997583;28;20073;-67
2021/05/18 06:07:52;;;;;;;11.27;8.82;;;11.60;90.40;;;;;;5010946;28;20113;-67
2021/05/18 06:10:26;;;;;;;10.90;9.80;;;11.70;87.80;;;;;;5009611;28;20080;-67
2021/05/18 06:34:46;;;;;;;10.18;8.38;;;12.20;85.50;;;;;;5002983;28;20042;-67
2021/05/18 06:37:37;;;;;;;10.15;8.70;;;12.30;86.80;;;;;;5020626;28;20046;-67
2021/05/18 06:47:58;;;;;;;8.98;7.35;;;12.70;82.70;;;;;;5010939;28;20413;-67
2021/05/18 06:50:32;;;;;;;9.57;8.57;;;12.70;83.70;;;;;;5009150;28;20041;-67
2021/05/18 06:52:58;;;;;;;9.02;7.60;;;12.80;84.80;;;;;;5019723;28;20501;-66
2021/05/18 06:55:30;;;;;;;8.43;7.60;;;12.80;85.10;;;;;;5009890;28;20116;-66
2021/05/18 06:58:02;;;;;;;9.32;8.40;;;13.00;82.70;;;;;;5010041;28;20037;-66
2021/05/18 07:00:28;;;;;;;9.10;7.57;;;13.10;82.10;;;;;;5002512;28;20551;-67
2021/05/18 07:02:57;;;;;;;8.02;7.32;;;13.20;81.50;;;;;;5008498;28;20066;-66
2021/05/18 07:05:31;;;;;;;9.45;8.05;;;13.20;81.40;;;;;;5011030;28;20034;-67
2021/05/18 07:10:35;;;;;;;10.40;8.63;;;13.30;82.80;;;;;;5008789;28;20499;-67
2021/05/18 07:13:00;;;;;;;9.75;8.85;;;13.30;83.40;;;;;;5005058;28;20038;-66
2021/05/18 07:15:28;;;;;;;9.70;8.80;;;13.40;79.70;;;;;;5014115;28;20433;-66
2021/05/18 07:17:55;;;;;;;10.30;9.30;;;13.40;81.20;;;;;;5015697;28;20037;-66
2021/05/18 07:20:21;;;;;;;9.40;8.30;;;13.30;82.80;;;;;;5008124;28;20410;-66
2021/05/18 07:22:47;;;;;;;10.05;8.90;;;13.60;81.10;;;;;;5018206;28;20091;-68
2021/05/18 07:25:13;;;;;;;9.38;7.63;;;14.70;80.80;;;;;;5020778;28;20065;-66
2021/05/18 07:27:39;;;;;;;8.48;7.68;;;16.30;76.20;;;;;;5003748;28;20034;-66
2021/05/18 07:30:06;;;;;;;9.10;8.20;;;17.80;68.50;;;;;;5008537;28;20040;-66
2021/05/18 07:32:32;;;;;;;8.75;7.90;;;19.00;68.50;;;;;;5018449;28;20143;-66
2021/05/18 07:34:58;;;;;;;8.70;7.90;;;20.10;67.70;;;;;;5019220;28;20121;-66
2021/05/18 07:37:24;;;;;;;8.20;7.47;;;20.10;64.00;;;;;;5016239;28;20483;-67
2021/05/18 07:39:50;;;;;;;6.03;5.43;;;19.80;65.10;;;;;;5029849;28;20068;-66
2021/05/18 07:42:17;;;;;;;6.22;5.53;;;19.00;62.30;;;;;;5014868;28;20505;-66
2021/05/18 07:44:42;;;;;;;7.68;5.30;;;18.40;63.50;;;;;;5013295;28;20034;-67
2021/05/18 07:47:08;;;;;;;11.27;5.53;;;17.80;65.00;;;;;;5012261;28;20108;-66
2021/05/18 07:49:40;;;;;;;6.25;5.65;;;17.40;66.10;;;;;;5015492;28;20039;-66
2021/05/18 08:00:32;;;;;;;7.53;6.75;;;16.60;69.70;;;;;;5009145;28;20041;-66
2021/05/18 08:05:44;;;;;;;6.93;6.25;;;17.00;67.30;;;;;;5012270;28;20034;-66
2021/05/18 08:08:09;;;;;;;7.53;5.65;;;17.40;64.70;;;;;;5020780;28;20045;-66
2021/05/18 08:10:45;;;;;;;7.03;6.43;;;17.60;65.00;;;;;;5022188;28;20045;-67
2021/05/18 08:13:11;;;;;;;6.60;6.00;;;17.90;64.60;;;;;;5011861;28;20034;-66
2021/05/18 08:16:00;;;;;;;7.85;5.93;;;17.70;64.20;;;;;;5011824;28;20092;-67
2021/05/18 09:01:50;;;;;;;5.30;4.43;;;18.30;60.60;;;;;;5011583;28;20090;-66
2021/05/18 09:34:23;;;;;;;7.32;5.97;;;15.40;69.00;;;;;;5024539;28;20072;-66
2021/05/18 09:47:54;;;;;;;6.93;6.32;;;14.90;73.00;;;;;;5016418;28;20046;-66
2021/05/18 10:15:27;;;;;;;4.47;4.07;;;16.80;64.50;;;;;;5013353;28;20029;-68
2021/05/18 10:26:40;;;;;;;3.63;3.33;;;17.60;61.10;;;;;;5012362;28;20037;-69
2021/05/18 10:36:37;;;;;;;2.25;2.05;;;17.60;60.20;;;;;;5005858;28;20042;-69
2021/05/18 10:39:23;;;;;;;;;;;17.30;57.40;;;;;;4994608;28;20037;-67
2021/05/18 10:41:50;;;;;;;2.67;2.47;;;17.20;61.80;;;;;;5007822;28;19922;-67
2021/05/18 10:44:17;;;;;;;3.25;3.05;;;16.90;60.20;;;;;;5019298;28;20053;-68
2021/05/18 10:46:55;;;;;;;3.50;3.22;;;17.10;62.20;;;;;;5022687;28;20065;-68
2021/05/18 10:49:35;;;;;;;3.20;2.90;;;17.30;61.60;;;;;;5012440;28;20048;-67
2021/05/18 10:52:06;;;;;;;2.33;2.13;;;17.00;60.30;;;;;;5006133;28;20077;-68
2021/05/18 10:54:39;;;;;;;2.42;2.20;;;17.20;62.90;;;;;;5009238;28;20060;-71
2021/05/18 10:57:06;;;;;;;3.33;2.88;;;17.20;62.30;;;;;;5007857;28;20491;-70
2021/05/18 10:59:44;;;;;;;3.00;2.80;;;17.20;62.10;;;;;;5009157;28;20069;-71
2021/05/18 11:02:35;;;;;;;2.92;2.70;;;16.90;61.40;;;;;;5007350;28;20046;-71
2021/05/18 11:05:11;;;;;;;2.50;2.30;;;17.20;62.60;;;;;;5010077;28;20069;-71
2021/05/18 11:07:39;;;;;;;5.07;3.08;;;17.30;62.00;;;;;;5005685;28;20034;-71
2021/05/18 11:10:16;;;;;;;5.70;4.55;;;16.90;62.90;;;;;;5011772;28;20096;-71
2021/05/18 11:12:46;;;;;;;4.25;3.90;;;16.80;60.30;;;;;;5015687;28;20402;-71
2021/05/18 11:15:16;;;;;;;3.35;3.05;;;16.70;62.10;;;;;;5017880;28;20120;-71
2021/05/18 11:17:49;;;;;;;5.55;4.10;;;16.80;64.10;;;;;;5011307;28;20104;-70
2021/05/18 11:20:46;;;;;;;;;;;16.60;66.30;;;;;;5021604;28;20113;-70
2021/05/18 11:23:23;;;;;;;4.25;3.95;;;16.70;66.10;;;;;;5021310;28;19921;-71
2021/05/18 11:26:08;;;;;;;2.22;2.10;;;15.80;68.70;;;;;;5022471;28;20049;-66
2021/05/18 11:28:45;;;;;;;1.92;1.83;;;15.20;69.50;;;;;;5022914;28;20059;-67
2021/05/18 11:31:20;;;;;;;3.03;2.83;;;14.50;72.30;;;;;;5023039;28;20331;-67
2021/05/18 11:33:51;;;;;;;2.58;2.38;;;13.70;74.60;;;;;;5009884;28;20088;-68
2021/05/18 11:36:19;;;;;;;3.58;3.28;;;13.70;76.00;;;;;;5021898;28;20056;-69
2021/05/18 11:38:58;;;;;;;3.78;3.47;;;13.20;80.50;;;;;;5016838;28;20046;-68
2021/05/18 11:41:26;;;;;;;3.85;3.55;;;13.10;81.00;;;;;;5010638;28;20041;-69
2021/05/18 11:43:54;;;;;;;4.82;4.43;;;13.10;81.90;;;;;;5009736;28;20037;-69
2021/05/18 11:46:21;;;;;;;4.82;4.43;;;13.10;84.90;;;;;;5009603;28;20029;-70
2021/05/18 11:49:01;;;;;;;4.75;4.35;;;13.20;82.80;;;;;;5016589;28;20060;-70
2021/05/18 11:51:42;;;;;;;5.18;4.70;;;13.10;84.50;;;;;;5016080;28;20502;-69
2021/05/18 11:54:08;;;;;;;5.22;4.78;;;13.20;84.00;;;;;;5007022;28;20041;-70
2021/05/18 11:56:36;;;;;;;5.22;4.72;;;13.40;82.90;;;;;;5006054;28;20038;-69
2021/05/18 11:59:10;;;;;;;4.65;4.35;;;13.50;82.80;;;;;;5015564;28;20048;-71
2021/05/18 12:01:43;;;;;;;4.32;3.92;;;13.60;83.20;;;;;;5019171;28;20749;-71
2021/05/18 12:04:14;;;;;;;3.53;3.22;;;13.70;82.40;;;;;;5010198;28;20049;-71
2021/05/18 12:07:14;;;;;;;3.85;3.55;;;13.70;82.30;;;;;;5013139;28;20050;-71
2021/05/18 12:09:44;;;;;;;3.72;3.38;;;13.60;82.60;;;;;;5021923;28;20100;-71
2021/05/18 12:12:14;;;;;;;3.90;3.60;;;13.70;80.00;;;;;;5013413;28;20033;-71
2021/05/18 12:14:48;;;;;;;4.07;3.70;;;13.70;82.70;;;;;;5017866;28;20556;-71
2021/05/18 12:17:27;;;;;;;5.15;4.65;;;13.70;81.50;;;;;;5021564;28;20037;-71
2021/05/18 12:19:53;;;;;;;4.32;3.92;;;13.80;83.40;;;;;;5022651;28;20068;-71
2021/05/18 12:22:19;;;;;;;4.97;4.57;;;13.90;81.10;;;;;;5013139;28;20046;-71
2021/05/18 12:24:45;;;;;;;5.65;5.25;;;14.00;81.00;;;;;;5013591;28;20049;-71
2021/05/18 12:27:11;;;;;;;5.40;5.00;;;14.10;81.80;;;;;;5012349;28;20088;-71
2021/05/18 12:29:42;;;;;;;5.10;4.60;;;14.20;81.10;;;;;;5031438;28;20084;-71
2021/05/18 12:32:22;;;;;;;4.43;4.03;;;14.40;80.60;;;;;;5012945;28;20042;-71
2021/05/18 12:34:53;;;;;;;4.40;4.00;;;14.50;78.50;;;;;;5024405;28;20034;-71
2021/05/18 12:37:39;;;;;;;3.85;3.55;;;14.60;79.80;;;;;;5027176;28;20087;-70
2021/05/18 12:40:33;;;;;;;4.68;3.80;;;14.70;79.70;;;;;;5013718;28;20034;-69
2021/05/18 12:43:13;;;;;;;3.67;3.38;;;14.80;79.30;;;;;;5014869;28;20414;-71
2021/05/18 12:45:41;;;;;;;4.20;3.10;;;14.80;79.60;;;;;;5012689;28;20514;-70
2021/05/18 12:48:08;;;;;;;3.97;3.67;;;14.90;77.60;;;;;;5012490;28;20121;-70
2021/05/18 12:51:00;;;;;;;3.97;3.58;;;14.90;77.90;;;;;;5024143;28;20033;-68
2021/05/18 12:53:28;;;;;;;3.88;3.50;;;15.00;78.10;;;;;;5023844;28;20145;-69
2021/05/18 12:55:57;;;;;;;4.30;3.97;;;15.20;77.70;;;;;;5014392;28;20061;-69
2021/05/18 12:58:31;;;;;;;6.50;3.95;;;15.40;76.80;;;;;;5009379;28;20091;-68
2021/05/18 13:01:07;;;;;;;4.15;3.85;;;15.70;77.70;;;;;;5007710;28;20042;-69
2021/05/18 13:03:32;;;;;;;3.95;3.60;;;16.00;78.20;;;;;;5007204;28;20056;-69
2021/05/18 13:05:58;;;;;;;4.68;4.28;;;16.10;73.10;;;;;;5004958;28;20077;-69
2021/05/18 13:08:45;;;;;;;4.15;3.75;;;16.10;76.00;;;;;;5002104;28;20073;-69
2021/05/18 13:12:11;;;;;;;3.65;3.35;;;16.30;71.60;;;;;;5027419;28;20042;-68
2021/05/18 13:14:00;;;;;;;4.22;3.83;;;16.40;72.00;;;;;;5009205;28;20403;-68
2021/05/18 13:16:34;;;;;;;3.88;2.85;;;16.70;70.70;;;;;;5023007;28;20041;-69
2021/05/18 13:19:08;;;;;;;3.35;3.05;;;16.80;71.30;;;;;;5023225;28;20116;-69
2021/05/18 13:21:53;;;;;;;3.80;2.70;;;16.80;72.50;;;;;;5021062;28;20088;-68
2021/05/18 13:26:48;;;;;;;3.50;3.10;;;17.00;68.90;;;;;;5019973;28;20048;-69
2021/05/18 13:29:23;;;;;;;3.50;3.20;;;16.80;68.80;;;;;;5016477;28;20030;-68
2021/05/18 13:31:51;;;;;;;3.60;2.90;;;17.10;68.20;;;;;;5010164;28;20161;-68
2021/05/18 13:34:17;;;;;;;3.20;3.00;;;16.90;64.60;;;;;;5009718;28;20541;-68
2021/05/18 13:36:44;;;;;;;3.75;3.42;;;17.20;66.80;;;;;;5017218;28;20045;-69
2021/05/18 13:39:12;;;;;;;3.55;3.25;;;17.20;67.50;;;;;;5018570;28;20051;-69
2021/05/18 13:41:39;;;;;;;3.85;3.55;;;17.10;67.80;;;;;;5029517;28;20093;-68
2021/05/18 13:44:06;;;;;;;4.32;3.85;;;16.90;65.30;;;;;;5012365;28;20042;-68
2021/05/18 13:46:32;;;;;;;4.72;4.32;;;16.70;66.40;;;;;;5015827;28;20052;-69
2021/05/18 13:48:59;;;;;;;5.97;4.53;;;16.70;67.70;;;;;;5026625;28;20072;-69
2021/05/18 13:51:25;;;;;;;5.22;4.72;;;16.60;67.20;;;;;;5012192;28;20391;-68
2021/05/18 13:53:51;;;;;;;4.57;4.15;;;16.50;65.90;;;;;;5009623;28;20044;-69
2021/05/18 13:56:20;;;;;;;4.22;3.80;;;16.40;68.30;;;;;;5011019;28;20049;-68
2021/05/18 13:58:46;;;;;;;3.95;3.47;;;16.00;68.30;;;;;;5009746;28;20041;-68
2021/05/18 14:01:12;;;;;;;4.50;4.03;;;15.10;70.10;;;;;;5010727;28;20050;-69
2021/05/18 14:03:38;;;;;;;5.47;4.15;;;14.80;73.60;;;;;;5010417;28;20699;-68
2021/05/18 14:06:04;;;;;;;5.00;4.57;;;14.60;74.10;;;;;;5009105;28;20030;-69
2021/05/18 14:08:34;;;;;;;4.38;3.97;;;14.40;77.20;;;;;;5022512;28;20044;-69
2021/05/18 14:11:11;;;;;;;4.85;4.35;;;14.60;78.60;;;;;;5017214;28;20047;-66
2021/05/18 14:13:41;;;;;;;5.43;4.82;;;14.70;75.50;;;;;;5023143;28;20033;-66
2021/05/18 14:16:09;;;;;;;5.10;4.60;;;14.30;74.20;;;;;;5009017;28;20061;-66
2021/05/18 14:18:36;;;;;;;4.80;4.35;;;14.00;72.20;;;;;;5014838;28;20106;-66
2021/05/18 14:21:03;;;;;;;5.07;4.60;;;14.20;74.50;;;;;;5016230;28;20045;-67
2021/05/18 14:23:58;;;;;;;5.13;4.63;;;14.10;75.80;;;;;;5013399;28;20053;-66
2021/05/18 14:26:26;;;;;;;5.55;4.80;;;14.20;75.30;;;;;;5000482;28;20049;-66
2021/05/18 14:28:51;;;;;;;5.90;4.57;;;14.40;75.90;;;;;;5026012;28;20129;-66
2021/05/18 14:31:17;;;;;;;4.88;4.47;;;14.20;76.30;;;;;;5021696;28;20474;-65
2021/05/18 14:33:44;;;;;;;5.28;4.55;;;13.80;73.60;;;;;;5008797;28;20034;-65
2021/05/18 14:36:11;;;;;;;5.82;4.20;;;13.70;76.10;;;;;;5009891;28;20045;-65
2021/05/18 14:38:41;;;;;;;4.78;4.38;;;13.70;77.60;;;;;;5010726;28;21512;-65
2021/05/18 14:56:49;;;;;;;5.88;5.15;;;13.10;88.70;;;;;;5017503;28;20044;-65
2021/05/18 14:59:15;;;;;;;7.10;6.40;;;12.80;86.60;;;;;;5018370;28;20068;-65
2021/05/18 15:01:41;;;;;;;9.35;8.35;;;12.10;92.80;;;;;;5024246;28;20049;-65
2021/05/18 15:04:06;;;;;;;8.68;7.78;;;12.00;93.90;;;;;;5013855;28;20045;-65
2021/05/18 15:06:32;;;;;;;8.48;7.60;;;12.10;92.80;;;;;;5014327;28;20132;-65
2021/05/18 15:08:58;;;;;;;10.10;8.23;;;12.20;94.50;;;;;;5014547;28;20491;-65
2021/05/18 15:11:24;;;;;;;9.98;7.68;;;12.10;93.90;;;;;;5020533;28;20053;-65
2021/05/18 15:13:50;;;;;;;9.98;8.32;;;11.90;93.30;;;;;;5016053;28;20514;-66
2021/05/18 15:16:16;;;;;;;10.10;9.07;;;12.10;93.20;;;;;;5016119;28;20497;-65
2021/05/18 15:18:44;;;;;;;9.30;8.32;;;12.40;93.90;;;;;;5016401;28;20049;-65
2021/05/18 15:21:10;;;;;;;8.40;7.60;;;12.80;92.90;;;;;;5015694;28;20083;-65
2021/05/18 15:23:37;;;;;;;7.60;6.95;;;13.20;91.80;;;;;;5012542;28;20392;-66
2021/05/18 15:26:03;;;;;;;8.40;7.50;;;13.50;89.40;;;;;;5014099;28;20034;-65
2021/05/18 15:28:28;;;;;;;9.63;8.23;;;13.50;89.90;;;;;;5014412;28;20034;-65
2021/05/18 15:30:55;;;;;;;10.13;8.55;;;13.40;90.70;;;;;;5016227;28;20037;-65
2021/05/18 15:33:21;;;;;;;10.02;8.98;;;13.40;90.40;;;;;;5016058;28;20402;-65
2021/05/18 15:35:47;;;;;;;9.80;8.88;;;13.30;91.00;;;;;;5013231;28;20033;-67
2021/05/18 15:40:40;;;;;;;9.85;8.95;;;13.00;90.70;;;;;;5027561;28;20038;-64
2021/05/18 15:43:06;;;;;;;9.27;8.38;;;12.80;90.80;;;;;;5029268;28;20052;-65
2021/05/18 15:45:32;;;;;;;10.63;9.65;;;12.70;91.40;;;;;;5016040;28;20124;-66
2021/05/18 15:47:58;;;;;;;10.88;9.82;;;12.70;91.60;;;;;;5035863;28;20041;-65
2021/05/18 15:50:24;;;;;;;11.15;10.15;;;12.70;92.00;;;;;;5021804;28;20502;-65
2021/05/18 15:52:50;;;;;;;10.52;9.45;;;12.80;92.90;;;;;;5029464;28;20104;-65
2021/05/18 15:55:16;;;;;;;9.85;8.95;;;12.90;92.20;;;;;;5029660;28;20048;-65
2021/05/18 15:57:41;;;;;;;11.13;10.02;;;12.80;91.80;;;;;;5012907;28;20041;-65
2021/05/18 16:00:07;;;;;;;10.52;9.48;;;12.90;91.90;;;;;;5030747;28;20033;-66
2021/05/18 16:02:33;;;;;;;11.50;10.40;;;12.90;91.70;;;;;;5030933;28;20041;-66
2021/05/18 16:04:58;;;;;;;10.43;8.82;;;13.00;92.40;;;;;;5026852;28;20026;-66
2021/05/18 16:07:26;;;;;;;11.80;10.70;;;13.00;91.70;;;;;;5029071;28;20441;-66
2021/05/18 16:09:52;;;;;;;15.70;14.32;;;13.00;92.10;;;;;;5025682;28;20037;-65
2021/05/18 16:12:17;;;;;;;12.45;11.35;;;13.00;92.50;;;;;;5030402;28;20041;-65
2021/05/18 16:14:44;;;;;;;12.00;10.80;;;12.60;92.90;;;;;;5024380;28;20030;-65
2021/05/18 16:17:10;;;;;;;12.55;11.35;;;12.50;93.00;;;;;;5007956;28;20069;-66
2021/05/18 16:19:36;;;;;;;13.25;11.63;;;12.70;91.70;;;;;;5027463;28;20057;-66
2021/05/18 16:22:02;;;;;;;13.20;11.80;;;12.60;91.90;;;;;;5006304;28;20083;-66
2021/05/18 16:24:33;;;;;;;13.55;12.15;;;12.70;91.40;;;;;;5028064;28;20041;-66
2021/05/18 16:26:58;;;;;;;13.55;11.77;;;12.70;90.90;;;;;;5027848;28;20080;-66
2021/05/18 16:29:27;;;;;;;14.15;12.63;;;12.70;90.40;;;;;;5014221;28;20462;-65
2021/05/18 16:31:52;;;;;;;15.70;13.90;;;12.70;90.70;;;;;;5027928;28;20049;-65
2021/05/18 16:34:18;;;;;;;11.93;10.73;;;12.80;91.10;;;;;;5024783;28;20030;-65
2021/05/18 16:36:44;;;;;;;13.93;12.63;;;12.80;90.90;;;;;;5026722;28;20037;-66
2021/05/18 16:39:09;;;;;;;12.95;11.82;;;12.70;92.70;;;;;;5004709;28;20042;-66
2021/05/18 16:41:40;;;;;;;12.27;10.95;;;12.60;92.30;;;;;;5012584;28;20125;-65
2021/05/18 16:44:07;;;;;;;12.82;11.63;;;12.70;91.10;;;;;;4994854;28;20048;-65
2021/05/18 16:46:34;;;;;;;14.35;12.98;;;12.80;90.60;;;;;;5022407;28;20065;-66
2021/05/18 16:48:59;;;;;;;14.65;13.10;;;12.90;90.80;;;;;;5026935;28;20491;-65
2021/05/18 16:51:25;;;;;;;15.63;14.02;;;12.90;92.30;;;;;;5028099;28;20048;-66
2021/05/18 16:53:53;;;;;;;14.13;12.73;;;12.80;92.50;;;;;;5027829;28;20044;-66
2021/05/18 16:56:19;;;;;;;16.33;13.50;;;12.80;91.70;;;;;;5012465;28;20037;-65
2021/05/18 16:58:44;;;;;;;16.58;14.77;;;12.80;91.40;;;;;;5024859;28;20471;-66
2021/05/18 17:01:10;;;;;;;16.05;14.18;;;12.80;91.50;;;;;;5026529;28;21509;-66
2021/05/18 17:03:35;;;;;;;17.38;15.40;;;12.80;90.90;;;;;;5020653;28;20033;-65
2021/05/18 17:06:02;;;;;;;13.43;12.02;;;12.80;92.70;;;;;;5018910;28;20037;-66
2021/05/18 17:08:28;;;;;;;15.65;13.95;;;12.70;91.70;;;;;;5021605;28;20032;-65
2021/05/18 17:10:55;;;;;;;15.25;13.65;;;12.60;92.20;;;;;;5003439;28;20034;-65
2021/05/18 17:13:21;;;;;;;20.55;18.45;;;12.60;92.50;;;;;;5027436;28;20041;-65
2021/05/18 17:15:46;;;;;;;21.73;19.50;;;12.40;93.60;;;;;;5024539;28;20034;-65
2021/05/18 17:18:12;;;;;;;15.48;13.98;;;12.40;93.20;;;;;;5025857;28;20034;-65
2021/05/18 17:20:38;;;;;;;13.88;12.55;;;12.40;93.60;;;;;;5025178;28;20059;-65
2021/05/18 17:23:05;;;;;;;15.55;13.95;;;12.40;93.20;;;;;;5013109;28;20049;-65
2021/05/18 17:25:31;;;;;;;14.90;13.40;;;12.50;92.60;;;;;;5027552;28;20037;-66
2021/05/18 17:27:56;;;;;;;16.33;14.63;;;12.60;92.50;;;;;;5024947;28;20095;-66
2021/05/18 17:30:25;;;;;;;14.50;13.10;;;12.70;92.70;;;;;;5030210;28;20045;-66
2021/05/18 17:32:52;;;;;;;15.45;13.88;;;12.70;93.00;;;;;;5022982;28;20041;-66